Hartford/Springfield (BDL/KBDL)

Information

Location
Hartford, CT
Local Time
23:33 / 11:33 pm
GMT Time
03:33 / 3:33 am
Gates
A9
No FAA reported delays
METAR KBDL 250251Z 32009KT 10SM SCT080 BKN090 BKN110 21/14 A2987 RMK AO2 SLP113 T02110144 53027
TAF KBDL 242323Z 2500/2606 31008KT P6SM FEW250 FM250400 00000KT P6SM SCT070 BKN250 FM251800 22011G18KT P6SM SCT060 FM252000 23011KT P6SM BKN060 FM260000 28010KT P6SM SCT060 FM260200 30006KT P6SM SCT060